sensor_id;sensor_type;location;lat;lon;timestamp;pressure;altitude;pressure_sealevel;temperature;humidity
6835;BME280;3455;42.150;24.734;2022-12-29T00:00:05;66342.78;;;8.57;76.50
6835;BME280;3455;42.150;24.734;2022-12-29T00:02:33;66351.34;;;8.72;75.70
6835;BME280;3455;42.150;24.734;2022-12-29T00:05:01;66304.31;;;8.57;75.84
6835;BME280;3455;42.150;24.734;2022-12-29T00:07:28;66331.28;;;8.58;75.95
6835;BME280;3455;42.150;24.734;2022-12-29T00:09:55;66321.34;;;8.63;75.29
6835;BME280;3455;42.150;24.734;2022-12-29T00:12:22;66301.25;;;8.68;75.36
6835;BME280;3455;42.150;24.734;2022-12-29T00:14:48;66329.78;;;8.73;75.07
6835;BME280;3455;42.150;24.734;2022-12-29T00:17:34;66294.28;;;8.50;75.67
6835;BME280;3455;42.150;24.734;2022-12-29T00:20:01;66304.09;;;8.41;76.15
6835;BME280;3455;42.150;24.734;2022-12-29T00:22:59;66316.56;;;8.54;76.74
6835;BME280;3455;42.150;24.734;2022-12-29T00:25:44;66318.88;;;8.56;77.25
6835;BME280;3455;42.150;24.734;2022-12-29T00:28:28;66359.84;;;8.75;77.01
6835;BME280;3455;42.150;24.734;2022-12-29T00:31:12;66351.41;;;8.83;76.82
6835;BME280;3455;42.150;24.734;2022-12-29T00:33:57;66362.13;;;9.13;76.00
6835;BME280;3455;42.150;24.734;2022-12-29T00:36:42;66429.16;;;9.19;75.54
6835;BME280;3455;42.150;24.734;2022-12-29T00:39:12;66399.94;;;9.38;75.52
6835;BME280;3455;42.150;24.734;2022-12-29T00:42:02;66424.38;;;9.46;74.54
6835;BME280;3455;42.150;24.734;2022-12-29T00:44:58;66444.22;;;9.61;74.29
6835;BME280;3455;42.150;24.734;2022-12-29T00:47:25;66352.78;;;9.29;74.27
6835;BME280;3455;42.150;24.734;2022-12-29T00:49:53;66437.06;;;9.57;74.13
6835;BME280;3455;42.150;24.734;2022-12-29T00:52:19;66406.59;;;9.34;74.13
6835;BME280;3455;42.150;24.734;2022-12-29T00:54:45;66388.59;;;9.43;73.93
6835;BME280;3455;42.150;24.734;2022-12-29T00:57:12;66411.78;;;9.57;73.75
6835;BME280;3455;42.150;24.734;2022-12-29T00:59:40;66407.13;;;9.53;73.93
6835;BME280;3455;42.150;24.734;2022-12-29T01:02:08;66437.63;;;9.58;73.27
6835;BME280;3455;42.150;24.734;2022-12-29T01:04:35;66409.03;;;9.41;73.81
6835;BME280;3455;42.150;24.734;2022-12-29T01:07:04;66417.56;;;9.44;73.79
6835;BME280;3455;42.150;24.734;2022-12-29T01:09:31;66390.31;;;9.45;73.25
6835;BME280;3455;42.150;24.734;2022-12-29T01:12:15;66411.66;;;9.34;73.19
6835;BME280;3455;42.150;24.734;2022-12-29T01:15:03;66400.81;;;9.29;72.44
6835;BME280;3455;42.150;24.734;2022-12-29T01:17:30;66378.25;;;9.16;73.34
6835;BME280;3455;42.150;24.734;2022-12-29T01:19:57;66378.28;;;9.27;72.93
6835;BME280;3455;42.150;24.734;2022-12-29T01:22:25;66385.66;;;9.29;73.01
6835;BME280;3455;42.150;24.734;2022-12-29T01:24:51;66370.66;;;9.16;73.07
6835;BME280;3455;42.150;24.734;2022-12-29T01:27:18;66379.59;;;9.33;72.89
6835;BME280;3455;42.150;24.734;2022-12-29T01:29:45;66354.13;;;8.99;73.43
6835;BME280;3455;42.150;24.734;2022-12-29T01:32:12;66432.22;;;9.55;71.50
6835;BME280;3455;42.150;24.734;2022-12-29T01:34:38;66446.13;;;9.79;70.34
6835;BME280;3455;42.150;24.734;2022-12-29T01:37:05;66414.25;;;9.46;71.57
6835;BME280;3455;42.150;24.734;2022-12-29T01:39:33;66414.78;;;9.64;70.65
6835;BME280;3455;42.150;24.734;2022-12-29T01:42:00;66409.25;;;9.57;71.07
6835;BME280;3455;42.150;24.734;2022-12-29T01:44:48;66434.59;;;9.68;70.69
6835;BME280;3455;42.150;24.734;2022-12-29T01:47:21;66423.75;;;9.63;70.40
6835;BME280;3455;42.150;24.734;2022-12-29T01:49:49;66422.63;;;9.73;70.36
6835;BME280;3455;42.150;24.734;2022-12-29T01:52:16;66440.63;;;9.83;69.38
6835;BME280;3455;42.150;24.734;2022-12-29T01:54:49;66440.91;;;9.92;69.46
6835;BME280;3455;42.150;24.734;2022-12-29T01:57:20;66475.97;;;10.19;68.79
6835;BME280;3455;42.150;24.734;2022-12-29T01:59:50;66449.38;;;9.84;69.60
6835;BME280;3455;42.150;24.734;2022-12-29T02:02:19;66468.97;;;9.90;69.01
6835;BME280;3455;42.150;24.734;2022-12-29T02:04:46;66461.56;;;10.06;68.65
6835;BME280;3455;42.150;24.734;2022-12-29T02:07:18;66428.47;;;9.90;69.12
6835;BME280;3455;42.150;24.734;2022-12-29T02:09:48;66481.94;;;10.10;68.21
6835;BME280;3455;42.150;24.734;2022-12-29T02:12:16;66432.53;;;9.75;69.51
6835;BME280;3455;42.150;24.734;2022-12-29T02:14:44;66434.50;;;9.75;69.57
6835;BME280;3455;42.150;24.734;2022-12-29T02:17:21;66430.44;;;9.71;69.96
6835;BME280;3455;42.150;24.734;2022-12-29T02:23:26;66461.53;;;9.77;69.37
6835;BME280;3455;42.150;24.734;2022-12-29T02:26:20;66452.13;;;9.82;69.74
6835;BME280;3455;42.150;24.734;2022-12-29T02:31:51;66411.78;;;9.57;71.07
6835;BME280;3455;42.150;24.734;2022-12-29T02:34:25;66427.44;;;9.64;70.93
6835;BME280;3455;42.150;24.734;2022-12-29T02:37:01;66405.88;;;9.77;70.05
6835;BME280;3455;42.150;24.734;2022-12-29T02:39:36;66439.22;;;9.72;69.62
6835;BME280;3455;42.150;24.734;2022-12-29T02:42:10;66373.84;;;9.10;72.19
6835;BME280;3455;42.150;24.734;2022-12-29T02:44:46;66366.47;;;9.08;72.65
6835;BME280;3455;42.150;24.734;2022-12-29T02:47:24;66339.78;;;8.80;73.51
6835;BME280;3455;42.150;24.734;2022-12-29T02:50:02;66371.84;;;8.81;73.59
6835;BME280;3455;42.150;24.734;2022-12-29T02:52:33;66341.56;;;8.92;72.31
6835;BME280;3455;42.150;24.734;2022-12-29T02:55:00;66322.47;;;8.64;73.48
6835;BME280;3455;42.150;24.734;2022-12-29T02:57:32;66305.06;;;8.44;74.57
6835;BME280;3455;42.150;24.734;2022-12-29T03:00:03;66305.63;;;8.45;74.44
6835;BME280;3455;42.150;24.734;2022-12-29T03:02:43;66282.63;;;8.17;75.41
6835;BME280;3455;42.150;24.734;2022-12-29T03:05:37;66274.59;;;8.22;76.41
6835;BME280;3455;42.150;24.734;2022-12-29T03:08:16;66296.81;;;8.14;75.83
6835;BME280;3455;42.150;24.734;2022-12-29T03:10:51;66309.06;;;7.94;77.00
6835;BME280;3455;42.150;24.734;2022-12-29T03:13:25;66272.16;;;7.97;76.70
6835;BME280;3455;42.150;24.734;2022-12-29T03:16:18;66284.25;;;7.90;77.14
6835;BME280;3455;42.150;24.734;2022-12-29T03:18:52;66193.47;;;7.54;79.43
6835;BME280;3455;42.150;24.734;2022-12-29T03:21:28;66208.00;;;7.53;79.57
6835;BME280;3455;42.150;24.734;2022-12-29T03:24:10;66203.81;;;7.09;80.94
6835;BME280;3455;42.150;24.734;2022-12-29T03:26:37;66165.97;;;7.16;80.49
6835;BME280;3455;42.150;24.734;2022-12-29T03:29:06;66165.50;;;6.84;82.79
6835;BME280;3455;42.150;24.734;2022-12-29T03:31:35;66207.59;;;7.21;80.91
6835;BME280;3455;42.150;24.734;2022-12-29T03:34:06;66185.03;;;7.26;80.26
6835;BME280;3455;42.150;24.734;2022-12-29T03:36:38;66168.91;;;7.12;81.07
6835;BME280;3455;42.150;24.734;2022-12-29T03:39:09;66163.78;;;7.00;81.53
6835;BME280;3455;42.150;24.734;2022-12-29T03:41:40;66181.06;;;6.98;80.96
6835;BME280;3455;42.150;24.734;2022-12-29T03:44:07;66154.06;;;6.85;81.74
6835;BME280;3455;42.150;24.734;2022-12-29T03:46:35;66185.09;;;7.01;81.14
6835;BME280;3455;42.150;24.734;2022-12-29T03:49:01;66151.53;;;6.85;80.96
6835;BME280;3455;42.150;24.734;2022-12-29T03:51:29;66165.50;;;6.84;81.96
6835;BME280;3455;42.150;24.734;2022-12-29T03:53:56;66163.06;;;6.95;81.18
6835;BME280;3455;42.150;24.734;2022-12-29T03:56:23;66183.78;;;6.96;80.85
6835;BME280;3455;42.150;24.734;2022-12-29T03:58:49;66121.94;;;6.43;83.04
6835;BME280;3455;42.150;24.734;2022-12-29T04:01:16;66150.94;;;6.67;82.77
6835;BME280;3455;42.150;24.734;2022-12-29T04:03:43;66186.00;;;6.87;81.58
6835;BME280;3455;42.150;24.734;2022-12-29T04:06:09;66108.28;;;6.53;82.79
6835;BME280;3455;42.150;24.734;2022-12-29T04:08:37;66162.03;;;6.81;81.34
6835;BME280;3455;42.150;24.734;2022-12-29T04:11:04;66137.97;;;6.46;83.28
6835;BME280;3455;42.150;24.734;2022-12-29T04:13:31;66155.03;;;6.63;82.90
6835;BME280;3455;42.150;24.734;2022-12-29T04:15:58;66138.88;;;6.74;82.27
6835;BME280;3455;42.150;24.734;2022-12-29T04:18:25;66152.84;;;6.73;81.51
6835;BME280;3455;42.150;24.734;2022-12-29T04:20:51;66121.25;;;6.74;81.42
6835;BME280;3455;42.150;24.734;2022-12-29T04:23:26;66165.47;;;6.66;82.11
6835;BME280;3455;42.150;24.734;2022-12-29T04:25:54;66117.13;;;6.41;84.44
6835;BME280;3455;42.150;24.734;2022-12-29T04:28:21;66126.91;;;6.50;83.40
6835;BME280;3455;42.150;24.734;2022-12-29T04:30:48;66144.38;;;6.45;83.32
6835;BME280;3455;42.150;24.734;2022-12-29T04:33:14;66128.75;;;6.38;83.94
6835;BME280;3455;42.150;24.734;2022-12-29T04:35:41;66146.75;;;6.58;83.14
6835;BME280;3455;42.150;24.734;2022-12-29T04:38:09;66156.84;;;6.58;82.77
6835;BME280;3455;42.150;24.734;2022-12-29T04:40:37;66143.53;;;6.29;84.08
6835;BME280;3455;42.150;24.734;2022-12-29T04:43:05;66149.19;;;6.47;83.54
6835;BME280;3455;42.150;24.734;2022-12-29T04:45:32;66114.19;;;6.20;85.58
6835;BME280;3455;42.150;24.734;2022-12-29T04:47:59;66099.84;;;6.26;85.24
6835;BME280;3455;42.150;24.734;2022-12-29T04:50:26;66140.59;;;6.57;83.55
6835;BME280;3455;42.150;24.734;2022-12-29T04:52:52;66137.84;;;6.59;83.76
6835;BME280;3455;42.150;24.734;2022-12-29T04:55:19;66164.47;;;6.70;82.77
6835;BME280;3455;42.150;24.734;2022-12-29T04:57:46;66141.72;;;6.58;82.63
6835;BME280;3455;42.150;24.734;2022-12-29T05:00:14;66149.72;;;6.54;83.68
6835;BME280;3455;42.150;24.734;2022-12-29T05:02:41;66109.34;;;6.61;82.84
6835;BME280;3455;42.150;24.734;2022-12-29T05:05:08;66170.97;;;6.80;82.57
6835;BME280;3455;42.150;24.734;2022-12-29T05:07:35;66150.75;;;6.44;83.78
6835;BME280;3455;42.150;24.734;2022-12-29T05:10:03;66144.75;;;6.66;82.88
6835;BME280;3455;42.150;24.734;2022-12-29T05:12:30;66122.88;;;6.46;82.58
6835;BME280;3455;42.150;24.734;2022-12-29T05:14:57;66110.31;;;6.21;83.68
6835;BME280;3455;42.150;24.734;2022-12-29T05:20:47;66094.06;;;6.20;83.89
6835;BME280;3455;42.150;24.734;2022-12-29T05:23:14;66136.06;;;6.22;84.07
6835;BME280;3455;42.150;24.734;2022-12-29T05:25:43;66149.63;;;6.43;83.37
6835;BME280;3455;42.150;24.734;2022-12-29T05:28:10;66084.16;;;6.25;83.14
6835;BME280;3455;42.150;24.734;2022-12-29T05:30:37;66083.84;;;5.98;84.42
6835;BME280;3455;42.150;24.734;2022-12-29T05:33:03;66091.38;;;5.98;84.53
6835;BME280;3455;42.150;24.734;2022-12-29T05:35:31;66082.41;;;6.06;84.95
6835;BME280;3455;42.150;24.734;2022-12-29T05:37:59;66105.81;;;6.29;82.83
6835;BME280;3455;42.150;24.734;2022-12-29T05:40:26;66067.59;;;5.97;83.70
6835;BME280;3455;42.150;24.734;2022-12-29T05:42:53;66016.16;;;5.96;83.45
6835;BME280;3455;42.150;24.734;2022-12-29T05:45:19;66123.41;;;6.29;82.70
6835;BME280;3455;42.150;24.734;2022-12-29T05:47:47;66142.53;;;6.32;82.84
6835;BME280;3455;42.150;24.734;2022-12-29T05:50:14;66068.84;;;6.09;83.31
6835;BME280;3455;42.150;24.734;2022-12-29T05:52:44;66110.44;;;6.08;83.79
6835;BME280;3455;42.150;24.734;2022-12-29T05:55:13;66113.47;;;6.15;83.17
6835;BME280;3455;42.150;24.734;2022-12-29T05:57:39;66106.56;;;6.09;82.39
6835;BME280;3455;42.150;24.734;2022-12-29T06:00:07;66125.75;;;6.49;82.69
6835;BME280;3455;42.150;24.734;2022-12-29T06:02:35;66137.47;;;6.14;82.47
6835;BME280;3455;42.150;24.734;2022-12-29T06:05:02;66089.75;;;6.08;83.64
6835;BME280;3455;42.150;24.734;2022-12-29T06:07:29;66126.03;;;6.40;83.31
6835;BME280;3455;42.150;24.734;2022-12-29T06:09:55;66127.91;;;6.46;82.41
6835;BME280;3455;42.150;24.734;2022-12-29T06:12:23;66117.94;;;6.33;82.86
6835;BME280;3455;42.150;24.734;2022-12-29T06:14:50;66119.06;;;6.58;82.66
6835;BME280;3455;42.150;24.734;2022-12-29T06:17:17;66128.63;;;6.51;82.20
6835;BME280;3455;42.150;24.734;2022-12-29T06:19:43;66121.41;;;6.36;83.34
6835;BME280;3455;42.150;24.734;2022-12-29T06:22:10;66161.91;;;6.76;81.61
6835;BME280;3455;42.150;24.734;2022-12-29T06:24:39;66169.06;;;6.74;82.75
6835;BME280;3455;42.150;24.734;2022-12-29T06:27:06;66147.06;;;6.68;83.22
6835;BME280;3455;42.150;24.734;2022-12-29T06:29:34;66183.38;;;7.00;82.13
6835;BME280;3455;42.150;24.734;2022-12-29T06:32:02;66178.63;;;6.91;81.61
6835;BME280;3455;42.150;24.734;2022-12-29T06:34:29;66167.94;;;6.73;82.06
6835;BME280;3455;42.150;24.734;2022-12-29T06:36:56;66209.25;;;6.87;82.95
6835;BME280;3455;42.150;24.734;2022-12-29T06:39:23;66173.06;;;6.84;81.95
6835;BME280;3455;42.150;24.734;2022-12-29T06:41:52;66170.97;;;6.80;82.48
6835;BME280;3455;42.150;24.734;2022-12-29T06:44:19;66182.78;;;6.99;82.22
6835;BME280;3455;42.150;24.734;2022-12-29T06:46:47;66168.53;;;7.09;81.86
6835;BME280;3455;42.150;24.734;2022-12-29T06:49:14;66197.56;;;6.72;82.12
6835;BME280;3455;42.150;24.734;2022-12-29T06:51:40;66179.06;;;7.23;81.20
6835;BME280;3455;42.150;24.734;2022-12-29T06:54:07;66205.84;;;7.20;80.88
6835;BME280;3455;42.150;24.734;2022-12-29T06:56:34;66271.00;;;7.78;82.45
6835;BME280;3455;42.150;24.734;2022-12-29T06:59:01;66422.91;;;9.35;76.27
6835;BME280;3455;42.150;24.734;2022-12-29T07:01:27;66505.38;;;10.04;68.67
6835;BME280;3455;42.150;24.734;2022-12-29T07:03:56;66618.09;;;11.22;64.16
6835;BME280;3455;42.150;24.734;2022-12-29T07:06:22;66616.63;;;11.71;58.97
6835;BME280;3455;42.150;24.734;2022-12-29T07:08:49;66545.25;;;10.58;60.32
6835;BME280;3455;42.150;24.734;2022-12-29T07:11:16;66582.50;;;11.00;58.30
6835;BME280;3455;42.150;24.734;2022-12-29T07:13:42;66528.06;;;10.29;59.89
6835;BME280;3455;42.150;24.734;2022-12-29T07:16:09;66551.31;;;10.72;59.68
6835;BME280;3455;42.150;24.734;2022-12-29T07:18:36;66644.72;;;11.57;57.15
6835;BME280;3455;42.150;24.734;2022-12-29T07:21:05;66744.72;;;12.30;53.97
6835;BME280;3455;42.150;24.734;2022-12-29T07:23:31;66721.78;;;12.59;53.29
6835;BME280;3455;42.150;24.734;2022-12-29T07:25:59;66735.31;;;12.80;52.19
6835;BME280;3455;42.150;24.734;2022-12-29T07:28:27;66786.00;;;13.16;50.67
6835;BME280;3455;42.150;24.734;2022-12-29T07:30:53;66861.34;;;13.83;49.38
6835;BME280;3455;42.150;24.734;2022-12-29T07:33:20;66758.72;;;13.10;51.15
6835;BME280;3455;42.150;24.734;2022-12-29T07:35:47;66866.41;;;13.60;49.69
6835;BME280;3455;42.150;24.734;2022-12-29T07:38:15;66918.81;;;14.61;46.86
6835;BME280;3455;42.150;24.734;2022-12-29T07:40:43;66929.25;;;14.48;46.11
6835;BME280;3455;42.150;24.734;2022-12-29T07:43:09;66980.72;;;15.11;45.55
6835;BME280;3455;42.150;24.734;2022-12-29T07:45:36;66961.28;;;14.81;44.88
6835;BME280;3455;42.150;24.734;2022-12-29T07:48:04;66927.16;;;14.77;45.03
6835;BME280;3455;42.150;24.734;2022-12-29T07:50:33;66908.97;;;14.64;45.66
6835;BME280;3455;42.150;24.734;2022-12-29T07:52:59;66942.00;;;14.59;45.69
6835;BME280;3455;42.150;24.734;2022-12-29T07:55:28;66893.66;;;14.30;45.95
6835;BME280;3455;42.150;24.734;2022-12-29T07:57:55;66809.91;;;13.42;48.15
6835;BME280;3455;42.150;24.734;2022-12-29T08:00:22;66728.47;;;12.56;50.97
6835;BME280;3455;42.150;24.734;2022-12-29T08:02:49;66744.88;;;13.20;50.55
6835;BME280;3455;42.150;24.734;2022-12-29T08:05:16;66894.00;;;13.98;48.30
6835;BME280;3455;42.150;24.734;2022-12-29T08:07:44;66964.72;;;15.06;45.66
6835;BME280;3455;42.150;24.734;2022-12-29T08:10:11;66927.88;;;14.83;46.06
6835;BME280;3455;42.150;24.734;2022-12-29T08:12:39;66829.13;;;13.86;49.19
6835;BME280;3455;42.150;24.734;2022-12-29T08:15:07;66953.94;;;15.06;46.27
6835;BME280;3455;42.150;24.734;2022-12-29T08:17:34;67006.25;;;15.34;46.10
6835;BME280;3455;42.150;24.734;2022-12-29T08:20:02;67032.25;;;15.52;43.73
6835;BME280;3455;42.150;24.734;2022-12-29T08:22:29;66999.53;;;15.26;45.99
6835;BME280;3455;42.150;24.734;2022-12-29T08:24:55;67172.66;;;16.99;42.16
6835;BME280;3455;42.150;24.734;2022-12-29T08:27:22;67217.97;;;17.39;41.19
6835;BME280;3455;42.150;24.734;2022-12-29T08:29:50;67387.75;;;18.66;38.87
6835;BME280;3455;42.150;24.734;2022-12-29T08:32:17;67386.00;;;19.03;37.51
6835;BME280;3455;42.150;24.734;2022-12-29T08:34:44;67276.59;;;18.02;39.31
6835;BME280;3455;42.150;24.734;2022-12-29T08:37:11;67530.97;;;19.93;37.07
6835;BME280;3455;42.150;24.734;2022-12-29T08:39:37;67556.00;;;20.42;36.21
6835;BME280;3455;42.150;24.734;2022-12-29T08:42:04;67517.97;;;20.15;35.43
6835;BME280;3455;42.150;24.734;2022-12-29T08:44:31;67779.72;;;22.19;32.52
6835;BME280;3455;42.150;24.734;2022-12-29T08:46:59;67914.47;;;23.48;30.77
6835;BME280;3455;42.150;24.734;2022-12-29T08:49:26;67861.34;;;23.02;31.70
6835;BME280;3455;42.150;24.734;2022-12-29T08:51:53;67729.66;;;21.95;32.74
6835;BME280;3455;42.150;24.734;2022-12-29T08:54:19;67954.88;;;23.73;30.07
6835;BME280;3455;42.150;24.734;2022-12-29T08:56:46;67702.34;;;21.75;32.18
6835;BME280;3455;42.150;24.734;2022-12-29T08:59:13;67687.94;;;21.56;33.88
6835;BME280;3455;42.150;24.734;2022-12-29T09:01:39;67702.84;;;21.71;33.31
6835;BME280;3455;42.150;24.734;2022-12-29T09:04:08;67861.44;;;23.06;31.24
6835;BME280;3455;42.150;24.734;2022-12-29T09:06:34;67973.09;;;23.77;30.07
6835;BME280;3455;42.150;24.734;2022-12-29T09:09:01;67950.13;;;23.80;30.55
6835;BME280;3455;42.150;24.734;2022-12-29T09:11:28;67604.13;;;21.34;33.58
6835;BME280;3455;42.150;24.734;2022-12-29T09:13:55;67777.31;;;22.28;33.13
6835;BME280;3455;42.150;24.734;2022-12-29T09:16:23;68039.28;;;24.44;29.49
6835;BME280;3455;42.150;24.734;2022-12-29T09:18:50;68095.94;;;24.90;29.02
6835;BME280;3455;42.150;24.734;2022-12-29T09:21:18;68071.81;;;24.96;28.46
6835;BME280;3455;42.150;24.734;2022-12-29T09:23:45;68167.03;;;25.34;27.89
6835;BME280;3455;42.150;24.734;2022-12-29T09:26:12;68169.66;;;25.54;27.80
6835;BME280;3455;42.150;24.734;2022-12-29T09:28:38;68055.16;;;24.63;28.69
6835;BME280;3455;42.150;24.734;2022-12-29T09:31:05;68218.91;;;25.50;27.52
6835;BME280;3455;42.150;24.734;2022-12-29T09:33:32;68183.84;;;25.76;26.96
6835;BME280;3455;42.150;24.734;2022-12-29T09:35:59;68240.34;;;26.07;27.38
6835;BME280;3455;42.150;24.734;2022-12-29T09:38:28;68274.59;;;26.19;27.34
6835;BME280;3455;42.150;24.734;2022-12-29T09:40:58;68275.91;;;26.29;26.31
6835;BME280;3455;42.150;24.734;2022-12-29T09:43:47;68544.13;;;28.05;24.85
6835;BME280;3455;42.150;24.734;2022-12-29T09:46:24;68566.97;;;28.20;24.42
6835;BME280;3455;42.150;24.734;2022-12-29T09:48:57;68423.31;;;27.40;25.05
6835;BME280;3455;42.150;24.734;2022-12-29T09:51:31;68286.16;;;26.20;25.96
6835;BME280;3455;42.150;24.734;2022-12-29T09:54:04;68254.47;;;26.24;26.41
6835;BME280;3455;42.150;24.734;2022-12-29T09:56:37;68134.47;;;25.19;27.75
6835;BME280;3455;42.150;24.734;2022-12-29T09:59:08;68044.19;;;24.78;27.60
6835;BME280;3455;42.150;24.734;2022-12-29T10:01:44;68210.91;;;25.72;26.85
6835;BME280;3455;42.150;24.734;2022-12-29T10:04:12;68212.97;;;25.92;26.44
6835;BME280;3455;42.150;24.734;2022-12-29T10:06:42;68304.69;;;26.22;26.15
6835;BME280;3455;42.150;24.734;2022-12-29T10:09:17;68252.19;;;25.90;26.32
6835;BME280;3455;42.150;24.734;2022-12-29T10:12:07;68166.13;;;24.99;27.31
6835;BME280;3455;42.150;24.734;2022-12-29T10:14:52;68383.25;;;27.12;25.35
6835;BME280;3455;42.150;24.734;2022-12-29T10:17:27;68530.56;;;27.88;23.86
6835;BME280;3455;42.150;24.734;2022-12-29T10:20:18;68406.38;;;27.30;24.66
6835;BME280;3455;42.150;24.734;2022-12-29T10:23:01;68400.78;;;27.07;24.96
6835;BME280;3455;42.150;24.734;2022-12-29T10:25:35;68521.91;;;27.90;24.02
6835;BME280;3455;42.150;24.734;2022-12-29T10:28:15;68225.19;;;25.98;25.80
6835;BME280;3455;42.150;24.734;2022-12-29T10:30:46;68401.41;;;27.07;25.31
6835;BME280;3455;42.150;24.734;2022-12-29T10:33:17;68305.50;;;26.73;25.78
6835;BME280;3455;42.150;24.734;2022-12-29T10:35:47;68342.34;;;26.65;25.73
6835;BME280;3455;42.150;24.734;2022-12-29T10:38:20;68112.63;;;25.22;27.39
6835;BME280;3455;42.150;24.734;2022-12-29T10:40:53;68458.97;;;27.46;24.68
6835;BME280;3455;42.150;24.734;2022-12-29T10:43:25;68328.78;;;26.85;25.96
6835;BME280;3455;42.150;24.734;2022-12-29T10:45:53;68469.41;;;27.67;24.60
6835;BME280;3455;42.150;24.734;2022-12-29T10:48:22;68442.09;;;27.20;25.17
6835;BME280;3455;42.150;24.734;2022-12-29T10:50:53;68518.59;;;28.01;24.46
6835;BME280;3455;42.150;24.734;2022-12-29T10:53:25;68343.88;;;26.89;25.44
6835;BME280;3455;42.150;24.734;2022-12-29T10:55:55;68241.28;;;25.94;25.75
6835;BME280;3455;42.150;24.734;2022-12-29T10:58:23;68347.63;;;26.69;25.49
6835;BME280;3455;42.150;24.734;2022-12-29T11:00:53;68396.19;;;27.07;25.38
6835;BME280;3455;42.150;24.734;2022-12-29T11:06:24;68240.69;;;26.30;25.68
6835;BME280;3455;42.150;24.734;2022-12-29T11:08:54;68428.22;;;27.22;25.04
6835;BME280;3455;42.150;24.734;2022-12-29T11:11:26;68387.84;;;26.91;24.82
6835;BME280;3455;42.150;24.734;2022-12-29T11:13:58;68344.09;;;26.66;25.98
6835;BME280;3455;42.150;24.734;2022-12-29T11:16:30;68298.81;;;26.54;26.03
6835;BME280;3455;42.150;24.734;2022-12-29T11:18:58;68345.09;;;26.74;25.57
6835;BME280;3455;42.150;24.734;2022-12-29T11:21:30;68307.03;;;26.61;25.43
6835;BME280;3455;42.150;24.734;2022-12-29T11:23:58;68273.13;;;26.36;25.87
6835;BME280;3455;42.150;24.734;2022-12-29T11:26:27;68300.38;;;26.41;26.42
6835;BME280;3455;42.150;24.734;2022-12-29T11:29:25;68220.50;;;25.94;25.70
6835;BME280;3455;42.150;24.734;2022-12-29T11:31:54;68409.59;;;27.14;25.00
6835;BME280;3455;42.150;24.734;2022-12-29T11:34:23;68302.19;;;26.48;25.91
6835;BME280;3455;42.150;24.734;2022-12-29T11:36:53;68310.97;;;26.55;25.72
6835;BME280;3455;42.150;24.734;2022-12-29T11:39:29;68418.03;;;26.47;25.56
6835;BME280;3455;42.150;24.734;2022-12-29T11:41:58;68394.88;;;26.97;24.97
6835;BME280;3455;42.150;24.734;2022-12-29T11:44:26;68231.06;;;26.03;25.64
6835;BME280;3455;42.150;24.734;2022-12-29T11:46:54;68472.81;;;27.61;24.18
6835;BME280;3455;42.150;24.734;2022-12-29T11:49:23;68675.31;;;29.12;22.98
6835;BME280;3455;42.150;24.734;2022-12-29T11:51:52;68777.44;;;29.51;22.66
6835;BME280;3455;42.150;24.734;2022-12-29T11:54:24;68654.69;;;29.10;22.87
6835;BME280;3455;42.150;24.734;2022-12-29T11:56:53;68766.22;;;29.58;22.02
6835;BME280;3455;42.150;24.734;2022-12-29T11:59:38;68657.53;;;28.67;22.58
6835;BME280;3455;42.150;24.734;2022-12-29T12:05:28;68408.22;;;27.36;23.73
6835;BME280;3455;42.150;24.734;2022-12-29T12:08:17;68382.13;;;26.95;24.42
6835;BME280;3455;42.150;24.734;2022-12-29T12:10:51;68417.16;;;27.16;24.43
6835;BME280;3455;42.150;24.734;2022-12-29T12:13:23;68177.41;;;25.70;26.32
6835;BME280;3455;42.150;24.734;2022-12-29T12:15:57;68273.66;;;26.16;25.83
6835;BME280;3455;42.150;24.734;2022-12-29T12:18:37;68448.91;;;27.49;24.15
6835;BME280;3455;42.150;24.734;2022-12-29T12:21:10;68459.00;;;27.87;23.79
6835;BME280;3455;42.150;24.734;2022-12-29T12:23:57;68448.50;;;27.42;24.38
6835;BME280;3455;42.150;24.734;2022-12-29T12:26:32;68674.72;;;28.91;23.08
6835;BME280;3455;42.150;24.734;2022-12-29T12:29:05;68571.53;;;28.35;22.93
6835;BME280;3455;42.150;24.734;2022-12-29T12:31:44;68358.38;;;26.92;24.73
6835;BME280;3455;42.150;24.734;2022-12-29T12:34:16;68408.47;;;27.34;24.00
6835;BME280;3455;42.150;24.734;2022-12-29T12:37:00;68477.41;;;27.96;23.84
6835;BME280;3455;42.150;24.734;2022-12-29T12:39:36;68196.25;;;25.59;25.96
6835;BME280;3455;42.150;24.734;2022-12-29T12:42:15;68159.81;;;25.71;25.95
6835;BME280;3455;42.150;24.734;2022-12-29T12:44:52;68022.75;;;24.53;27.16
6835;BME280;3455;42.150;24.734;2022-12-29T12:47:42;68238.44;;;25.96;26.50
6835;BME280;3455;42.150;24.734;2022-12-29T12:50:26;68290.53;;;26.42;25.89
6835;BME280;3455;42.150;24.734;2022-12-29T12:53:06;68245.53;;;25.91;25.78
6835;BME280;3455;42.150;24.734;2022-12-29T12:55:52;68242.38;;;25.75;25.66
6835;BME280;3455;42.150;24.734;2022-12-29T12:58:29;68253.28;;;26.23;25.92
6835;BME280;3455;42.150;24.734;2022-12-29T13:01:11;68083.84;;;25.24;26.51
6835;BME280;3455;42.150;24.734;2022-12-29T13:03:53;68170.25;;;25.55;26.39
6835;BME280;3455;42.150;24.734;2022-12-29T13:06:36;68273.97;;;26.34;25.40
6835;BME280;3455;42.150;24.734;2022-12-29T13:09:27;68314.03;;;26.47;25.28
6835;BME280;3455;42.150;24.734;2022-12-29T13:12:04;68047.56;;;24.93;26.68
6835;BME280;3455;42.150;24.734;2022-12-29T13:14:43;67742.50;;;22.38;29.85
6835;BME280;3455;42.150;24.734;2022-12-29T13:17:18;67518.41;;;20.82;32.43
6835;BME280;3455;42.150;24.734;2022-12-29T13:19:53;67359.88;;;19.23;35.41
6835;BME280;3455;42.150;24.734;2022-12-29T13:22:28;67269.13;;;18.39;37.52
6835;BME280;3455;42.150;24.734;2022-12-29T13:25:13;67112.97;;;17.28;40.07
6835;BME280;3455;42.150;24.734;2022-12-29T13:27:50;67061.03;;;16.68;41.59
6835;BME280;3455;42.150;24.734;2022-12-29T13:30:20;67036.13;;;16.46;41.97
6835;BME280;3455;42.150;24.734;2022-12-29T13:32:56;66942.78;;;15.86;44.25
6835;BME280;3455;42.150;24.734;2022-12-29T13:35:48;66933.06;;;15.60;45.45
6835;BME280;3455;42.150;24.734;2022-12-29T13:38:22;66956.75;;;15.53;45.71
6835;BME280;3455;42.150;24.734;2022-12-29T13:40:55;66936.31;;;15.53;45.94
6835;BME280;3455;42.150;24.734;2022-12-29T13:43:22;66917.13;;;15.21;46.84
6835;BME280;3455;42.150;24.734;2022-12-29T13:45:57;66854.72;;;14.70;48.18
6835;BME280;3455;42.150;24.734;2022-12-29T13:48:30;66857.84;;;14.59;48.97
6835;BME280;3455;42.150;24.734;2022-12-29T13:51:05;66812.69;;;14.19;50.34
6835;BME280;3455;42.150;24.734;2022-12-29T13:53:37;66826.91;;;14.45;49.90